Aeroporto :
LOGIN :

Iscrizione | Disclaimer

   EN    FR    IT 

 










Sommario :    VFR   VFR Marginale   IFR   IFR Intensivo   IFR Molto Intensivo
Visibilità : 
Base nubi : 
>= 8 km
>= 3000ft
5 / 8 km
1000 / 3000 ft
1500m / 5 km
500 / 1000 ft
800 / 1500m
200 / 500 ft
< 800m
< 200 ft
Simboli :   Temporali  Nebbia  Neve Forte  Precipitazioni Forti  Vento > 20 kt
SIGMETs :   Varie  Temporali  Ghiacco  Turbolenza  Onda orograficha  Ceneri Vulcaniche







- Altitudine del aeroporto : 313 ft
- Codice IATA : LEH
- Carte del aeroporto


LFOH - Le Havre Octeville

ULTIMO METAR :
  • 250030Z AUTO 27007KT 6000 FEW004 12/11 Q1019

METARs OBSOLETI :
  • 250000Z AUTO 27006KT 6000 NSC 12/11 Q1019
  • 242330Z AUTO 28006KT 7000 NSC 11/10 Q1019
  • 242300Z AUTO 30007KT 8000 NSC 12/10 Q1019
  • 242230Z AUTO 30007KT 8000 NSC 12/10 Q1019
  • 242200Z AUTO 31007KT 8000 NSC 12/10 Q1019

TAF TAF LFOH
Valido dal 24 a 12 ore il 25 a 12 ore UTC


241100Z 2412/2512 30008KT CAVOK
BECMG 2502/2505 2000 BR OVC002
PROB40
TEMPO 2503/2508 0500 FG VV///
BECMG 2508/2511 CAVOK
ATIS : +33 2 35 54 64 93
Nessun NOTAM noto per questo aeroporto.



MetMap, La meteo Aeronautica in un colpo d'occhio ! - Copyright ORBIFLY Dicembre 2007 - Disclaimer

ORBIFLY MET'MAP TEAM :

Programmazione e sviluppo : Alexandra Zaïnal
Concezione e sviluppo : Baudouin d'Aumeries
Co-Programmazione e sviluppo : Marc-Olivier Méhu
Supporto tecnico e logistico : Manuel Goepfert
Aiuto per la traduzione : Arnaldo La Scala

Contatto : metmap@orbifly.com




FONTI E CREDITI :

   NOAA